sensor_id;sensor_type;location;lat;lon;timestamp;P1;durP1;ratioP1;P2;durP2;ratioP2
52564;SDS011;38460;53.106;7.004;2023-03-31T00:00:43;20.70;;;5.22;;
52564;SDS011;38460;53.106;7.004;2023-03-31T00:03:10;17.40;;;4.68;;
52564;SDS011;38460;53.106;7.004;2023-03-31T00:05:37;13.75;;;4.55;;
52564;SDS011;38460;53.106;7.004;2023-03-31T00:08:03;18.55;;;5.75;;
52564;SDS011;38460;53.106;7.004;2023-03-31T00:10:30;14.75;;;4.50;;
52564;SDS011;38460;53.106;7.004;2023-03-31T00:12:58;13.45;;;4.80;;
52564;SDS011;38460;53.106;7.004;2023-03-31T00:15:25;19.00;;;4.43;;
52564;SDS011;38460;53.106;7.004;2023-03-31T00:17:51;16.33;;;5.03;;
52564;SDS011;38460;53.106;7.004;2023-03-31T00:20:17;14.63;;;4.07;;
52564;SDS011;38460;53.106;7.004;2023-03-31T00:22:44;15.40;;;5.10;;
52564;SDS011;38460;53.106;7.004;2023-03-31T00:25:13;14.15;;;4.57;;
52564;SDS011;38460;53.106;7.004;2023-03-31T00:27:43;18.25;;;4.72;;
52564;SDS011;38460;53.106;7.004;2023-03-31T00:30:11;16.02;;;4.75;;
52564;SDS011;38460;53.106;7.004;2023-03-31T00:32:38;17.40;;;4.40;;
52564;SDS011;38460;53.106;7.004;2023-03-31T00:35:04;19.05;;;4.65;;
52564;SDS011;38460;53.106;7.004;2023-03-31T00:37:30;14.85;;;3.65;;
52564;SDS011;38460;53.106;7.004;2023-03-31T00:39:57;15.77;;;4.50;;
52564;SDS011;38460;53.106;7.004;2023-03-31T00:42:23;19.85;;;5.20;;
52564;SDS011;38460;53.106;7.004;2023-03-31T00:47:38;15.10;;;3.88;;
52564;SDS011;38460;53.106;7.004;2023-03-31T00:50:13;16.67;;;4.38;;
52564;SDS011;38460;53.106;7.004;2023-03-31T00:52:46;14.68;;;4.47;;
52564;SDS011;38460;53.106;7.004;2023-03-31T00:55:16;20.67;;;4.35;;
52564;SDS011;38460;53.106;7.004;2023-03-31T00:57:46;12.68;;;3.92;;
52564;SDS011;38460;53.106;7.004;2023-03-31T01:00:13;13.18;;;4.50;;
52564;SDS011;38460;53.106;7.004;2023-03-31T01:02:40;11.07;;;4.53;;
52564;SDS011;38460;53.106;7.004;2023-03-31T01:05:15;20.50;;;4.95;;
52564;SDS011;38460;53.106;7.004;2023-03-31T01:07:47;18.23;;;4.32;;
52564;SDS011;38460;53.106;7.004;2023-03-31T01:10:15;16.15;;;4.35;;
52564;SDS011;38460;53.106;7.004;2023-03-31T01:12:42;16.23;;;4.47;;
52564;SDS011;38460;53.106;7.004;2023-03-31T01:15:12;21.40;;;3.97;;
52564;SDS011;38460;53.106;7.004;2023-03-31T01:17:38;13.52;;;4.82;;
52564;SDS011;38460;53.106;7.004;2023-03-31T01:23:07;15.40;;;4.37;;
52564;SDS011;38460;53.106;7.004;2023-03-31T01:35:26;14.52;;;3.72;;
52564;SDS011;38460;53.106;7.004;2023-03-31T01:51:49;10.23;;;3.60;;
52564;SDS011;38460;53.106;7.004;2023-03-31T01:57:04;11.55;;;3.67;;
52564;SDS011;38460;53.106;7.004;2023-03-31T01:59:49;12.57;;;4.35;;
52564;SDS011;38460;53.106;7.004;2023-03-31T02:02:32;11.93;;;3.22;;
52564;SDS011;38460;53.106;7.004;2023-03-31T02:05:15;15.25;;;3.90;;
52564;SDS011;38460;53.106;7.004;2023-03-31T02:07:54;13.82;;;3.90;;
52564;SDS011;38460;53.106;7.004;2023-03-31T02:10:26;11.52;;;3.88;;
52564;SDS011;38460;53.106;7.004;2023-03-31T02:12:55;15.05;;;3.97;;
52564;SDS011;38460;53.106;7.004;2023-03-31T02:15:25;17.90;;;3.78;;
52564;SDS011;38460;53.106;7.004;2023-03-31T02:17:55;15.27;;;4.55;;
52564;SDS011;38460;53.106;7.004;2023-03-31T02:20:23;14.15;;;4.18;;
52564;SDS011;38460;53.106;7.004;2023-03-31T02:22:52;12.05;;;3.83;;
52564;SDS011;38460;53.106;7.004;2023-03-31T02:25:21;12.40;;;3.60;;
52564;SDS011;38460;53.106;7.004;2023-03-31T02:27:55;12.38;;;4.50;;
52564;SDS011;38460;53.106;7.004;2023-03-31T02:30:48;11.73;;;4.15;;
52564;SDS011;38460;53.106;7.004;2023-03-31T02:33:27;12.77;;;4.07;;
52564;SDS011;38460;53.106;7.004;2023-03-31T02:35:53;11.02;;;4.30;;
52564;SDS011;38460;53.106;7.004;2023-03-31T02:38:19;13.55;;;3.65;;
52564;SDS011;38460;53.106;7.004;2023-03-31T02:40:44;10.85;;;3.80;;
52564;SDS011;38460;53.106;7.004;2023-03-31T02:43:10;12.02;;;3.80;;
52564;SDS011;38460;53.106;7.004;2023-03-31T02:48:10;13.07;;;4.10;;
52564;SDS011;38460;53.106;7.004;2023-03-31T02:56:43;9.40;;;3.70;;
52564;SDS011;38460;53.106;7.004;2023-03-31T03:08:01;14.38;;;3.92;;
52564;SDS011;38460;53.106;7.004;2023-03-31T03:13:22;10.10;;;4.07;;
52564;SDS011;38460;53.106;7.004;2023-03-31T03:19:00;11.43;;;4.53;;
52564;SDS011;38460;53.106;7.004;2023-03-31T03:21:28;8.50;;;4.13;;
52564;SDS011;38460;53.106;7.004;2023-03-31T03:23:54;13.18;;;5.07;;
52564;SDS011;38460;53.106;7.004;2023-03-31T03:26:21;10.35;;;4.10;;
52564;SDS011;38460;53.106;7.004;2023-03-31T03:28:52;10.07;;;3.93;;
52564;SDS011;38460;53.106;7.004;2023-03-31T03:31:18;13.52;;;4.50;;
52564;SDS011;38460;53.106;7.004;2023-03-31T03:33:45;11.98;;;4.15;;
52564;SDS011;38460;53.106;7.004;2023-03-31T03:36:11;13.05;;;4.47;;
52564;SDS011;38460;53.106;7.004;2023-03-31T03:38:40;11.00;;;4.45;;
52564;SDS011;38460;53.106;7.004;2023-03-31T03:41:06;14.23;;;4.20;;
52564;SDS011;38460;53.106;7.004;2023-03-31T03:43:32;10.55;;;4.07;;
52564;SDS011;38460;53.106;7.004;2023-03-31T03:45:58;10.68;;;4.20;;
52564;SDS011;38460;53.106;7.004;2023-03-31T03:48:24;5.85;;;3.42;;
52564;SDS011;38460;53.106;7.004;2023-03-31T03:50:50;11.27;;;3.97;;
52564;SDS011;38460;53.106;7.004;2023-03-31T03:53:18;10.45;;;3.75;;
52564;SDS011;38460;53.106;7.004;2023-03-31T03:55:44;9.68;;;3.70;;
52564;SDS011;38460;53.106;7.004;2023-03-31T03:58:13;9.55;;;3.72;;
52564;SDS011;38460;53.106;7.004;2023-03-31T04:00:40;14.25;;;4.93;;
52564;SDS011;38460;53.106;7.004;2023-03-31T04:03:05;9.75;;;3.47;;
52564;SDS011;38460;53.106;7.004;2023-03-31T04:05:31;7.75;;;3.85;;
52564;SDS011;38460;53.106;7.004;2023-03-31T04:07:57;8.95;;;3.72;;
52564;SDS011;38460;53.106;7.004;2023-03-31T04:10:23;8.15;;;3.58;;
52564;SDS011;38460;53.106;7.004;2023-03-31T04:12:48;9.65;;;3.75;;
52564;SDS011;38460;53.106;7.004;2023-03-31T04:15:14;8.45;;;3.35;;
52564;SDS011;38460;53.106;7.004;2023-03-31T04:17:40;8.82;;;4.38;;
52564;SDS011;38460;53.106;7.004;2023-03-31T04:20:09;9.27;;;3.42;;
52564;SDS011;38460;53.106;7.004;2023-03-31T04:22:36;8.50;;;3.97;;
52564;SDS011;38460;53.106;7.004;2023-03-31T04:25:14;9.43;;;3.45;;
52564;SDS011;38460;53.106;7.004;2023-03-31T04:27:44;8.98;;;3.47;;
52564;SDS011;38460;53.106;7.004;2023-03-31T04:30:18;9.35;;;4.20;;
52564;SDS011;38460;53.106;7.004;2023-03-31T04:32:57;9.57;;;3.95;;
52564;SDS011;38460;53.106;7.004;2023-03-31T04:35:26;10.00;;;4.25;;
52564;SDS011;38460;53.106;7.004;2023-03-31T04:38:06;9.70;;;3.60;;
52564;SDS011;38460;53.106;7.004;2023-03-31T04:40:33;8.02;;;3.70;;
52564;SDS011;38460;53.106;7.004;2023-03-31T04:42:59;7.30;;;3.78;;
52564;SDS011;38460;53.106;7.004;2023-03-31T04:45:25;9.40;;;5.00;;
52564;SDS011;38460;53.106;7.004;2023-03-31T04:47:51;5.80;;;2.97;;
52564;SDS011;38460;53.106;7.004;2023-03-31T04:50:17;8.93;;;3.67;;
52564;SDS011;38460;53.106;7.004;2023-03-31T04:52:43;8.70;;;3.78;;
52564;SDS011;38460;53.106;7.004;2023-03-31T04:55:09;6.97;;;3.72;;
52564;SDS011;38460;53.106;7.004;2023-03-31T04:57:35;7.43;;;3.22;;
52564;SDS011;38460;53.106;7.004;2023-03-31T05:00:02;8.20;;;4.15;;
52564;SDS011;38460;53.106;7.004;2023-03-31T05:02:32;10.52;;;3.75;;
52564;SDS011;38460;53.106;7.004;2023-03-31T05:04:57;9.60;;;4.40;;
52564;SDS011;38460;53.106;7.004;2023-03-31T05:07:23;8.75;;;3.40;;
52564;SDS011;38460;53.106;7.004;2023-03-31T05:09:49;10.85;;;4.15;;
52564;SDS011;38460;53.106;7.004;2023-03-31T05:12:15;7.47;;;4.10;;
52564;SDS011;38460;53.106;7.004;2023-03-31T05:14:40;8.05;;;3.80;;
52564;SDS011;38460;53.106;7.004;2023-03-31T05:17:06;8.65;;;3.65;;
52564;SDS011;38460;53.106;7.004;2023-03-31T05:19:32;8.65;;;3.60;;
52564;SDS011;38460;53.106;7.004;2023-03-31T05:21:58;5.82;;;3.55;;
52564;SDS011;38460;53.106;7.004;2023-03-31T05:24:24;7.50;;;3.50;;
52564;SDS011;38460;53.106;7.004;2023-03-31T05:26:49;7.53;;;3.47;;
52564;SDS011;38460;53.106;7.004;2023-03-31T05:29:18;11.20;;;3.47;;
52564;SDS011;38460;53.106;7.004;2023-03-31T05:31:44;9.60;;;3.88;;
52564;SDS011;38460;53.106;7.004;2023-03-31T05:34:11;6.18;;;3.65;;
52564;SDS011;38460;53.106;7.004;2023-03-31T05:36:37;10.68;;;3.35;;
52564;SDS011;38460;53.106;7.004;2023-03-31T05:39:03;9.07;;;3.95;;
52564;SDS011;38460;53.106;7.004;2023-03-31T05:41:30;10.35;;;3.95;;
52564;SDS011;38460;53.106;7.004;2023-03-31T05:43:56;8.15;;;3.95;;
52564;SDS011;38460;53.106;7.004;2023-03-31T05:46:21;6.18;;;3.60;;
52564;SDS011;38460;53.106;7.004;2023-03-31T05:48:47;6.93;;;3.92;;
52564;SDS011;38460;53.106;7.004;2023-03-31T05:51:13;7.15;;;3.60;;
52564;SDS011;38460;53.106;7.004;2023-03-31T05:53:38;11.32;;;4.82;;
52564;SDS011;38460;53.106;7.004;2023-03-31T05:56:06;9.90;;;5.25;;
52564;SDS011;38460;53.106;7.004;2023-03-31T05:58:35;10.07;;;4.18;;
52564;SDS011;38460;53.106;7.004;2023-03-31T06:01:03;10.70;;;4.10;;
52564;SDS011;38460;53.106;7.004;2023-03-31T06:03:47;8.95;;;4.10;;
52564;SDS011;38460;53.106;7.004;2023-03-31T06:06:14;9.63;;;4.38;;
52564;SDS011;38460;53.106;7.004;2023-03-31T06:08:44;8.13;;;4.18;;
52564;SDS011;38460;53.106;7.004;2023-03-31T06:11:12;8.57;;;4.63;;
52564;SDS011;38460;53.106;7.004;2023-03-31T06:13:40;12.00;;;4.97;;
52564;SDS011;38460;53.106;7.004;2023-03-31T06:16:06;10.93;;;5.15;;
52564;SDS011;38460;53.106;7.004;2023-03-31T06:18:34;9.63;;;4.25;;
52564;SDS011;38460;53.106;7.004;2023-03-31T06:21:00;8.23;;;4.15;;
52564;SDS011;38460;53.106;7.004;2023-03-31T06:23:26;8.85;;;4.13;;
52564;SDS011;38460;53.106;7.004;2023-03-31T06:25:52;11.75;;;5.32;;
52564;SDS011;38460;53.106;7.004;2023-03-31T06:28:19;12.18;;;4.82;;
52564;SDS011;38460;53.106;7.004;2023-03-31T06:30:45;9.13;;;4.50;;
52564;SDS011;38460;53.106;7.004;2023-03-31T06:33:11;10.98;;;4.85;;
52564;SDS011;38460;53.106;7.004;2023-03-31T06:35:37;11.70;;;4.80;;
52564;SDS011;38460;53.106;7.004;2023-03-31T06:38:05;6.93;;;4.30;;
52564;SDS011;38460;53.106;7.004;2023-03-31T06:40:31;7.50;;;4.75;;
52564;SDS011;38460;53.106;7.004;2023-03-31T06:42:57;7.93;;;4.00;;
52564;SDS011;38460;53.106;7.004;2023-03-31T06:45:23;8.70;;;4.28;;
52564;SDS011;38460;53.106;7.004;2023-03-31T06:47:50;6.70;;;3.65;;
52564;SDS011;38460;53.106;7.004;2023-03-31T06:50:16;8.80;;;5.22;;
52564;SDS011;38460;53.106;7.004;2023-03-31T06:52:42;8.57;;;4.22;;
52564;SDS011;38460;53.106;7.004;2023-03-31T06:55:07;9.52;;;4.97;;
52564;SDS011;38460;53.106;7.004;2023-03-31T06:57:34;7.47;;;4.53;;
52564;SDS011;38460;53.106;7.004;2023-03-31T07:00:00;9.52;;;4.45;;
52564;SDS011;38460;53.106;7.004;2023-03-31T07:02:27;10.77;;;5.15;;
52564;SDS011;38460;53.106;7.004;2023-03-31T07:04:53;9.05;;;5.35;;
52564;SDS011;38460;53.106;7.004;2023-03-31T07:07:18;9.02;;;4.78;;
52564;SDS011;38460;53.106;7.004;2023-03-31T07:09:44;11.02;;;5.13;;
52564;SDS011;38460;53.106;7.004;2023-03-31T07:12:10;9.73;;;4.40;;
52564;SDS011;38460;53.106;7.004;2023-03-31T07:14:35;10.48;;;5.22;;
52564;SDS011;38460;53.106;7.004;2023-03-31T07:17:02;11.52;;;4.40;;
52564;SDS011;38460;53.106;7.004;2023-03-31T07:19:27;8.85;;;4.22;;
52564;SDS011;38460;53.106;7.004;2023-03-31T07:21:53;11.63;;;4.15;;
52564;SDS011;38460;53.106;7.004;2023-03-31T07:24:20;8.35;;;4.05;;
52564;SDS011;38460;53.106;7.004;2023-03-31T07:26:46;8.35;;;4.28;;
52564;SDS011;38460;53.106;7.004;2023-03-31T07:29:12;8.27;;;3.90;;
52564;SDS011;38460;53.106;7.004;2023-03-31T07:31:38;7.70;;;3.88;;
52564;SDS011;38460;53.106;7.004;2023-03-31T07:34:04;8.90;;;4.20;;
52564;SDS011;38460;53.106;7.004;2023-03-31T07:36:30;10.65;;;4.60;;
52564;SDS011;38460;53.106;7.004;2023-03-31T07:38:56;9.88;;;4.45;;
52564;SDS011;38460;53.106;7.004;2023-03-31T07:41:22;7.70;;;3.70;;
52564;SDS011;38460;53.106;7.004;2023-03-31T07:43:48;10.55;;;4.93;;
52564;SDS011;38460;53.106;7.004;2023-03-31T07:46:19;10.85;;;4.80;;
52564;SDS011;38460;53.106;7.004;2023-03-31T07:48:47;9.40;;;5.18;;
52564;SDS011;38460;53.106;7.004;2023-03-31T07:51:15;9.95;;;4.32;;
52564;SDS011;38460;53.106;7.004;2023-03-31T07:53:42;11.13;;;4.68;;
52564;SDS011;38460;53.106;7.004;2023-03-31T07:56:08;11.07;;;4.70;;
52564;SDS011;38460;53.106;7.004;2023-03-31T07:58:36;12.05;;;4.70;;
52564;SDS011;38460;53.106;7.004;2023-03-31T08:01:02;10.45;;;4.80;;
52564;SDS011;38460;53.106;7.004;2023-03-31T08:03:28;7.47;;;3.92;;
52564;SDS011;38460;53.106;7.004;2023-03-31T08:05:54;6.40;;;3.80;;
52564;SDS011;38460;53.106;7.004;2023-03-31T08:08:20;8.75;;;4.38;;
52564;SDS011;38460;53.106;7.004;2023-03-31T08:10:46;7.45;;;4.13;;
52564;SDS011;38460;53.106;7.004;2023-03-31T08:13:12;5.93;;;4.50;;
52564;SDS011;38460;53.106;7.004;2023-03-31T08:15:38;6.55;;;4.13;;
52564;SDS011;38460;53.106;7.004;2023-03-31T08:18:04;8.73;;;4.22;;
52564;SDS011;38460;53.106;7.004;2023-03-31T08:20:30;10.55;;;4.38;;
52564;SDS011;38460;53.106;7.004;2023-03-31T08:22:56;8.32;;;4.00;;
52564;SDS011;38460;53.106;7.004;2023-03-31T08:25:22;12.25;;;4.00;;
52564;SDS011;38460;53.106;7.004;2023-03-31T08:27:48;10.50;;;4.10;;
52564;SDS011;38460;53.106;7.004;2023-03-31T08:30:17;10.52;;;4.40;;
52564;SDS011;38460;53.106;7.004;2023-03-31T08:32:44;7.95;;;4.68;;
52564;SDS011;38460;53.106;7.004;2023-03-31T08:35:10;5.65;;;4.00;;
52564;SDS011;38460;53.106;7.004;2023-03-31T08:37:36;8.20;;;4.60;;
52564;SDS011;38460;53.106;7.004;2023-03-31T08:40:03;8.20;;;4.35;;
52564;SDS011;38460;53.106;7.004;2023-03-31T08:42:38;8.57;;;5.43;;
52564;SDS011;38460;53.106;7.004;2023-03-31T08:47:35;9.30;;;4.57;;
52564;SDS011;38460;53.106;7.004;2023-03-31T08:50:24;9.80;;;4.72;;
52564;SDS011;38460;53.106;7.004;2023-03-31T08:52:53;8.35;;;4.93;;
52564;SDS011;38460;53.106;7.004;2023-03-31T08:58:24;9.25;;;5.50;;
52564;SDS011;38460;53.106;7.004;2023-03-31T09:06:16;10.55;;;7.57;;
52564;SDS011;38460;53.106;7.004;2023-03-31T09:09:22;10.30;;;5.93;;
52564;SDS011;38460;53.106;7.004;2023-03-31T09:12:12;9.50;;;6.50;;
52564;SDS011;38460;53.106;7.004;2023-03-31T09:19:54;13.95;;;7.78;;
52564;SDS011;38460;53.106;7.004;2023-03-31T09:22:43;12.80;;;6.38;;
52564;SDS011;38460;53.106;7.004;2023-03-31T09:25:17;10.00;;;5.80;;
52564;SDS011;38460;53.106;7.004;2023-03-31T09:27:47;12.07;;;5.18;;
52564;SDS011;38460;53.106;7.004;2023-03-31T09:30:18;9.90;;;6.03;;
52564;SDS011;38460;53.106;7.004;2023-03-31T09:32:46;9.35;;;5.75;;
52564;SDS011;38460;53.106;7.004;2023-03-31T09:35:17;9.43;;;5.20;;
52564;SDS011;38460;53.106;7.004;2023-03-31T09:37:49;11.13;;;5.65;;
52564;SDS011;38460;53.106;7.004;2023-03-31T09:40:17;12.52;;;6.07;;
52564;SDS011;38460;53.106;7.004;2023-03-31T09:43:02;8.25;;;5.20;;
52564;SDS011;38460;53.106;7.004;2023-03-31T09:45:30;9.25;;;4.97;;
52564;SDS011;38460;53.106;7.004;2023-03-31T09:48:03;8.57;;;5.47;;
52564;SDS011;38460;53.106;7.004;2023-03-31T09:50:35;8.73;;;4.82;;
52564;SDS011;38460;53.106;7.004;2023-03-31T09:53:28;7.93;;;4.43;;
52564;SDS011;38460;53.106;7.004;2023-03-31T09:56:03;7.30;;;4.15;;
52564;SDS011;38460;53.106;7.004;2023-03-31T09:58:38;7.85;;;4.57;;
52564;SDS011;38460;53.106;7.004;2023-03-31T10:01:05;8.30;;;4.00;;
52564;SDS011;38460;53.106;7.004;2023-03-31T10:03:40;8.20;;;3.88;;
52564;SDS011;38460;53.106;7.004;2023-03-31T10:06:17;9.32;;;3.58;;
52564;SDS011;38460;53.106;7.004;2023-03-31T10:11:17;5.50;;;3.80;;
52564;SDS011;38460;53.106;7.004;2023-03-31T10:16:28;5.95;;;3.08;;
52564;SDS011;38460;53.106;7.004;2023-03-31T10:18:58;5.82;;;2.92;;
52564;SDS011;38460;53.106;7.004;2023-03-31T10:22:01;4.78;;;3.22;;
52564;SDS011;38460;53.106;7.004;2023-03-31T10:24:37;4.13;;;2.47;;
52564;SDS011;38460;53.106;7.004;2023-03-31T10:29:55;4.32;;;2.10;;
52564;SDS011;38460;53.106;7.004;2023-03-31T10:32:26;6.90;;;2.60;;
52564;SDS011;38460;53.106;7.004;2023-03-31T10:37:49;7.15;;;2.15;;
52564;SDS011;38460;53.106;7.004;2023-03-31T10:40:20;3.90;;;2.70;;
52564;SDS011;38460;53.106;7.004;2023-03-31T10:42:58;8.27;;;2.05;;
52564;SDS011;38460;53.106;7.004;2023-03-31T10:45:42;3.85;;;1.73;;
52564;SDS011;38460;53.106;7.004;2023-03-31T10:48:17;5.65;;;2.03;;
52564;SDS011;38460;53.106;7.004;2023-03-31T10:50:51;7.53;;;2.30;;
52564;SDS011;38460;53.106;7.004;2023-03-31T10:53:18;3.42;;;1.92;;
52564;SDS011;38460;53.106;7.004;2023-03-31T11:00:49;2.95;;;1.65;;
52564;SDS011;38460;53.106;7.004;2023-03-31T11:08:59;3.80;;;1.90;;
52564;SDS011;38460;53.106;7.004;2023-03-31T11:17:24;3.78;;;1.80;;
52564;SDS011;38460;53.106;7.004;2023-03-31T11:25:38;7.95;;;2.60;;
52564;SDS011;38460;53.106;7.004;2023-03-31T11:42:02;8.35;;;3.60;;
52564;SDS011;38460;53.106;7.004;2023-03-31T11:44:40;8.05;;;2.50;;
52564;SDS011;38460;53.106;7.004;2023-03-31T11:47:21;3.70;;;2.20;;
52564;SDS011;38460;53.106;7.004;2023-03-31T11:49:54;10.38;;;3.40;;
52564;SDS011;38460;53.106;7.004;2023-03-31T11:52:44;7.05;;;2.88;;
52564;SDS011;38460;53.106;7.004;2023-03-31T11:55:17;7.72;;;3.35;;
52564;SDS011;38460;53.106;7.004;2023-03-31T12:00:26;6.10;;;2.05;;
52564;SDS011;38460;53.106;7.004;2023-03-31T12:03:02;4.05;;;1.85;;
52564;SDS011;38460;53.106;7.004;2023-03-31T12:05:41;4.53;;;2.40;;
52564;SDS011;38460;53.106;7.004;2023-03-31T12:08:22;6.13;;;3.35;;
52564;SDS011;38460;53.106;7.004;2023-03-31T12:14:07;5.57;;;1.80;;
52564;SDS011;38460;53.106;7.004;2023-03-31T12:16:51;5.00;;;1.80;;
52564;SDS011;38460;53.106;7.004;2023-03-31T12:19:48;3.50;;;2.00;;
52564;SDS011;38460;53.106;7.004;2023-03-31T12:22:18;5.55;;;2.20;;
52564;SDS011;38460;53.106;7.004;2023-03-31T12:24:50;4.78;;;2.40;;
52564;SDS011;38460;53.106;7.004;2023-03-31T12:29:47;5.95;;;2.50;;
52564;SDS011;38460;53.106;7.004;2023-03-31T12:32:21;4.10;;;2.20;;
52564;SDS011;38460;53.106;7.004;2023-03-31T12:34:55;5.78;;;2.53;;
52564;SDS011;38460;53.106;7.004;2023-03-31T12:40:53;5.93;;;2.28;;
52564;SDS011;38460;53.106;7.004;2023-03-31T12:49:21;5.30;;;2.58;;
52564;SDS011;38460;53.106;7.004;2023-03-31T12:55:26;5.32;;;2.38;;
52564;SDS011;38460;53.106;7.004;2023-03-31T13:01:00;5.10;;;2.28;;
52564;SDS011;38460;53.106;7.004;2023-03-31T13:08:53;7.13;;;2.72;;
52564;SDS011;38460;53.106;7.004;2023-03-31T13:11:45;7.55;;;2.75;;
52564;SDS011;38460;53.106;7.004;2023-03-31T13:16:53;7.43;;;2.40;;
52564;SDS011;38460;53.106;7.004;2023-03-31T13:19:37;4.60;;;2.33;;
52564;SDS011;38460;53.106;7.004;2023-03-31T13:22:05;5.55;;;2.58;;
52564;SDS011;38460;53.106;7.004;2023-03-31T13:24:31;4.80;;;2.15;;
52564;SDS011;38460;53.106;7.004;2023-03-31T13:27:23;5.10;;;2.90;;
52564;SDS011;38460;53.106;7.004;2023-03-31T13:33:06;7.55;;;2.47;;
52564;SDS011;38460;53.106;7.004;2023-03-31T13:47:14;8.45;;;3.42;;
52564;SDS011;38460;53.106;7.004;2023-03-31T13:50:11;7.50;;;2.80;;
52564;SDS011;38460;53.106;7.004;2023-03-31T14:06:47;5.93;;;2.45;;
52564;SDS011;38460;53.106;7.004;2023-03-31T14:09:35;8.35;;;2.72;;
52564;SDS011;38460;53.106;7.004;2023-03-31T14:14:56;6.00;;;3.20;;
52564;SDS011;38460;53.106;7.004;2023-03-31T14:17:22;7.80;;;3.38;;
52564;SDS011;38460;53.106;7.004;2023-03-31T14:20:07;3.97;;;2.92;;
52564;SDS011;38460;53.106;7.004;2023-03-31T14:25:18;7.07;;;2.72;;
52564;SDS011;38460;53.106;7.004;2023-03-31T14:39:16;10.05;;;3.08;;
52564;SDS011;38460;53.106;7.004;2023-03-31T14:41:51;10.80;;;3.83;;
52564;SDS011;38460;53.106;7.004;2023-03-31T14:44:17;11.63;;;3.78;;
52564;SDS011;38460;53.106;7.004;2023-03-31T14:46:43;9.27;;;2.33;;
52564;SDS011;38460;53.106;7.004;2023-03-31T14:51:44;4.35;;;1.50;;
52564;SDS011;38460;53.106;7.004;2023-03-31T14:54:17;4.82;;;1.38;;
52564;SDS011;38460;53.106;7.004;2023-03-31T14:56:53;5.85;;;1.73;;
52564;SDS011;38460;53.106;7.004;2023-03-31T14:59:26;6.32;;;1.65;;
52564;SDS011;38460;53.106;7.004;2023-03-31T15:01:58;5.80;;;1.70;;
52564;SDS011;38460;53.106;7.004;2023-03-31T15:04:27;6.03;;;1.75;;
52564;SDS011;38460;53.106;7.004;2023-03-31T15:06:54;7.90;;;2.00;;
52564;SDS011;38460;53.106;7.004;2023-03-31T15:09:23;5.57;;;1.60;;
52564;SDS011;38460;53.106;7.004;2023-03-31T15:12:00;5.72;;;2.15;;
52564;SDS011;38460;53.106;7.004;2023-03-31T15:14:29;5.93;;;2.10;;
52564;SDS011;38460;53.106;7.004;2023-03-31T15:16:58;4.35;;;1.80;;
52564;SDS011;38460;53.106;7.004;2023-03-31T15:19:28;5.10;;;1.45;;
52564;SDS011;38460;53.106;7.004;2023-03-31T15:21:58;3.22;;;1.60;;
52564;SDS011;38460;53.106;7.004;2023-03-31T15:24:29;6.22;;;2.05;;
52564;SDS011;38460;53.106;7.004;2023-03-31T15:29:34;4.55;;;1.38;;
52564;SDS011;38460;53.106;7.004;2023-03-31T15:32:16;4.47;;;1.38;;
52564;SDS011;38460;53.106;7.004;2023-03-31T15:34:49;3.78;;;1.42;;
52564;SDS011;38460;53.106;7.004;2023-03-31T15:37:18;3.42;;;1.40;;
52564;SDS011;38460;53.106;7.004;2023-03-31T15:39:51;3.78;;;1.20;;
52564;SDS011;38460;53.106;7.004;2023-03-31T15:42:21;4.03;;;1.50;;
52564;SDS011;38460;53.106;7.004;2023-03-31T15:44:53;2.63;;;1.00;;
52564;SDS011;38460;53.106;7.004;2023-03-31T15:47:39;3.87;;;1.63;;
52564;SDS011;38460;53.106;7.004;2023-03-31T15:50:15;4.43;;;1.30;;
52564;SDS011;38460;53.106;7.004;2023-03-31T15:52:48;2.45;;;1.20;;
52564;SDS011;38460;53.106;7.004;2023-03-31T15:57:54;7.07;;;1.42;;
52564;SDS011;38460;53.106;7.004;2023-03-31T16:05:57;4.50;;;1.55;;
52564;SDS011;38460;53.106;7.004;2023-03-31T16:08:36;4.78;;;1.67;;
52564;SDS011;38460;53.106;7.004;2023-03-31T16:11:08;3.80;;;1.38;;
52564;SDS011;38460;53.106;7.004;2023-03-31T16:13:40;4.85;;;1.50;;
52564;SDS011;38460;53.106;7.004;2023-03-31T16:16:11;4.90;;;1.67;;
52564;SDS011;38460;53.106;7.004;2023-03-31T16:18:40;4.05;;;1.65;;
52564;SDS011;38460;53.106;7.004;2023-03-31T16:21:11;4.05;;;1.70;;
52564;SDS011;38460;53.106;7.004;2023-03-31T16:23:40;9.23;;;6.32;;
52564;SDS011;38460;53.106;7.004;2023-03-31T16:26:08;8.57;;;3.92;;
52564;SDS011;38460;53.106;7.004;2023-03-31T16:28:35;5.20;;;2.10;;
52564;SDS011;38460;53.106;7.004;2023-03-31T16:31:02;4.38;;;2.17;;
52564;SDS011;38460;53.106;7.004;2023-03-31T16:33:29;5.13;;;2.97;;
52564;SDS011;38460;53.106;7.004;2023-03-31T16:36:15;9.98;;;6.97;;
52564;SDS011;38460;53.106;7.004;2023-03-31T16:38:41;15.73;;;11.38;;
52564;SDS011;38460;53.106;7.004;2023-03-31T16:41:07;9.82;;;6.97;;
52564;SDS011;38460;53.106;7.004;2023-03-31T16:43:33;9.27;;;6.40;;
52564;SDS011;38460;53.106;7.004;2023-03-31T16:46:00;15.02;;;10.65;;
52564;SDS011;38460;53.106;7.004;2023-03-31T16:48:30;21.88;;;16.25;;
52564;SDS011;38460;53.106;7.004;2023-03-31T16:50:58;8.98;;;5.78;;
52564;SDS011;38460;53.106;7.004;2023-03-31T16:53:26;8.40;;;5.47;;
52564;SDS011;38460;53.106;7.004;2023-03-31T16:55:54;9.27;;;4.95;;
52564;SDS011;38460;53.106;7.004;2023-03-31T16:58:20;5.32;;;2.28;;
52564;SDS011;38460;53.106;7.004;2023-03-31T17:00:48;5.65;;;2.70;;
52564;SDS011;38460;53.106;7.004;2023-03-31T17:03:14;6.10;;;2.00;;
52564;SDS011;38460;53.106;7.004;2023-03-31T17:05:45;6.22;;;3.67;;
52564;SDS011;38460;53.106;7.004;2023-03-31T17:08:17;9.55;;;2.75;;
52564;SDS011;38460;53.106;7.004;2023-03-31T17:10:51;7.13;;;2.08;;
52564;SDS011;38460;53.106;7.004;2023-03-31T17:13:19;8.25;;;2.92;;
52564;SDS011;38460;53.106;7.004;2023-03-31T17:15:45;6.32;;;2.42;;
52564;SDS011;38460;53.106;7.004;2023-03-31T17:18:12;6.82;;;2.83;;
52564;SDS011;38460;53.106;7.004;2023-03-31T17:20:37;18.40;;;11.60;;
52564;SDS011;38460;53.106;7.004;2023-03-31T17:23:03;13.57;;;5.15;;
52564;SDS011;38460;53.106;7.004;2023-03-31T17:25:29;22.23;;;10.63;;
52564;SDS011;38460;53.106;7.004;2023-03-31T17:27:55;11.35;;;3.47;;
52564;SDS011;38460;53.106;7.004;2023-03-31T17:30:21;6.63;;;3.67;;
52564;SDS011;38460;53.106;7.004;2023-03-31T17:32:47;4.88;;;2.65;;
52564;SDS011;38460;53.106;7.004;2023-03-31T17:35:13;10.18;;;8.35;;
52564;SDS011;38460;53.106;7.004;2023-03-31T17:37:46;11.10;;;8.85;;
52564;SDS011;38460;53.106;7.004;2023-03-31T17:40:18;11.57;;;9.82;;
52564;SDS011;38460;53.106;7.004;2023-03-31T17:42:44;10.48;;;5.95;;
52564;SDS011;38460;53.106;7.004;2023-03-31T17:45:11;16.27;;;9.60;;
52564;SDS011;38460;53.106;7.004;2023-03-31T17:47:38;8.23;;;5.93;;
52564;SDS011;38460;53.106;7.004;2023-03-31T17:50:06;16.70;;;12.68;;
52564;SDS011;38460;53.106;7.004;2023-03-31T17:52:33;12.75;;;10.82;;
52564;SDS011;38460;53.106;7.004;2023-03-31T17:55:00;12.32;;;9.55;;
52564;SDS011;38460;53.106;7.004;2023-03-31T17:57:29;14.65;;;10.80;;
52564;SDS011;38460;53.106;7.004;2023-03-31T17:59:55;14.02;;;10.55;;
52564;SDS011;38460;53.106;7.004;2023-03-31T18:02:22;14.57;;;10.38;;
52564;SDS011;38460;53.106;7.004;2023-03-31T18:04:48;9.70;;;8.45;;
52564;SDS011;38460;53.106;7.004;2023-03-31T18:07:14;11.65;;;9.15;;
52564;SDS011;38460;53.106;7.004;2023-03-31T18:09:42;21.83;;;15.43;;
52564;SDS011;38460;53.106;7.004;2023-03-31T18:12:08;20.98;;;14.70;;
52564;SDS011;38460;53.106;7.004;2023-03-31T18:14:34;21.48;;;13.27;;
52564;SDS011;38460;53.106;7.004;2023-03-31T18:16:59;17.08;;;10.13;;
52564;SDS011;38460;53.106;7.004;2023-03-31T18:19:26;17.70;;;14.07;;
52564;SDS011;38460;53.106;7.004;2023-03-31T18:21:51;14.25;;;11.27;;
52564;SDS011;38460;53.106;7.004;2023-03-31T18:24:17;14.57;;;8.98;;
52564;SDS011;38460;53.106;7.004;2023-03-31T18:26:44;15.95;;;9.07;;